createdAt,value
2022-11-24T00:03:00.521Z,14.77
2022-11-24T00:07:45.804Z,16.13
2022-11-24T00:12:31.197Z,17.20
2022-11-24T00:17:18.843Z,15.15
2022-11-24T00:22:04.220Z,11.43
2022-11-24T00:26:49.245Z,5.97
2022-11-24T00:31:36.607Z,5.70
2022-11-24T00:36:25.937Z,4.93
2022-11-24T00:41:11.286Z,4.47
2022-11-24T00:45:56.420Z,4.63
2022-11-24T00:50:41.883Z,5.50
2022-11-24T00:55:29.531Z,5.70
2022-11-24T01:00:15.982Z,7.15
2022-11-24T01:05:01.085Z,7.80
2022-11-24T01:09:46.441Z,10.57
2022-11-24T01:14:35.715Z,10.93
2022-11-24T01:19:21.814Z,11.73
2022-11-24T01:24:07.303Z,9.63
2022-11-24T01:28:56.349Z,8.10
2022-11-24T01:33:44.008Z,6.97
2022-11-24T01:38:29.801Z,7.00
2022-11-24T01:43:19.904Z,6.55
2022-11-24T01:48:08.669Z,5.72
2022-11-24T01:52:58.652Z,6.15
2022-11-24T01:57:48.995Z,5.30
2022-11-24T02:02:34.118Z,4.82
2022-11-24T02:07:21.038Z,4.43
2022-11-24T02:12:09.921Z,5.40
2022-11-24T02:16:55.887Z,5.03
2022-11-24T02:21:41.014Z,5.88
2022-11-24T02:26:45.881Z,4.20
2022-11-24T02:31:31.327Z,3.67
2022-11-24T02:36:16.468Z,3.55
2022-11-24T02:41:05.806Z,3.75
2022-11-24T02:45:53.543Z,3.50
2022-11-24T02:50:39.361Z,3.08
2022-11-24T02:55:24.965Z,4.30
2022-11-24T03:00:12.360Z,5.28
2022-11-24T03:04:59.972Z,4.78
2022-11-24T03:09:45.784Z,3.95
2022-11-24T03:14:30.806Z,3.42
2022-11-24T03:19:16.360Z,3.03
2022-11-24T03:24:04.106Z,4.13
2022-11-24T03:28:49.633Z,3.13
2022-11-24T03:33:34.679Z,3.95
2022-11-24T03:38:20.060Z,3.53
2022-11-24T03:43:07.692Z,3.58
2022-11-24T03:47:54.289Z,2.67
2022-11-24T03:52:39.466Z,3.45
2022-11-24T03:57:24.791Z,3.20
2022-11-24T04:02:12.518Z,3.80
2022-11-24T04:06:57.860Z,4.07
2022-11-24T04:11:55.198Z,4.18
2022-11-24T04:16:40.572Z,4.47
2022-11-24T04:21:28.197Z,3.30
2022-11-24T04:26:13.523Z,3.97
2022-11-24T04:30:58.746Z,3.90
2022-11-24T04:35:44.271Z,3.47
2022-11-24T04:40:31.885Z,4.25
2022-11-24T04:45:17.244Z,3.40
2022-11-24T04:50:02.310Z,3.58
2022-11-24T04:54:47.988Z,4.43
2022-11-24T04:59:35.686Z,4.30
2022-11-24T05:04:21.649Z,4.75
2022-11-24T05:09:08.104Z,5.82
2022-11-24T05:13:55.661Z,5.03
2022-11-24T05:18:43.457Z,4.70
2022-11-24T05:23:29.356Z,4.55
2022-11-24T05:28:14.406Z,5.50
2022-11-24T05:33:00.283Z,5.05
2022-11-24T05:37:48.050Z,5.30
2022-11-24T05:42:48.130Z,5.28
2022-11-24T05:47:33.859Z,5.95
2022-11-24T05:52:19.380Z,5.35
2022-11-24T05:57:07.721Z,5.47
2022-11-24T06:01:52.813Z,5.90
2022-11-24T06:06:38.281Z,6.05
2022-11-24T06:11:23.303Z,6.00
2022-11-24T06:16:11.365Z,6.88
2022-11-24T06:21:10.406Z,4.70
2022-11-24T06:26:00.797Z,5.90
2022-11-24T06:30:45.932Z,5.97
2022-11-24T06:35:33.901Z,6.72
2022-11-24T06:40:19.912Z,7.13
2022-11-24T06:45:09.070Z,7.20
2022-11-24T06:49:54.670Z,7.05
2022-11-24T06:54:43.191Z,5.82
2022-11-24T06:59:28.434Z,6.80
2022-11-24T07:04:13.879Z,6.20
2022-11-24T07:08:58.900Z,6.30
2022-11-24T07:13:47.810Z,6.50
2022-11-24T07:18:32.983Z,7.07
2022-11-24T07:23:18.369Z,9.82
2022-11-24T07:28:03.759Z,14.40
2022-11-24T07:32:51.756Z,10.90
2022-11-24T07:37:36.816Z,27.08
2022-11-24T07:42:22.216Z,7.65
2022-11-24T07:47:07.312Z,8.80
2022-11-24T07:51:55.420Z,5.70
2022-11-24T07:56:40.831Z,6.05
2022-11-24T08:01:25.983Z,13.13
2022-11-24T08:06:35.416Z,19.10
2022-11-24T08:11:21.163Z,8.15
2022-11-24T08:16:10.812Z,7.82
2022-11-24T08:20:56.207Z,5.93
2022-11-24T08:25:41.261Z,7.15
2022-11-24T08:30:29.415Z,6.95
2022-11-24T08:35:14.831Z,5.45
2022-11-24T08:40:00.020Z,5.03
2022-11-24T08:44:45.335Z,5.90
2022-11-24T08:49:33.049Z,5.70
2022-11-24T08:54:18.914Z,9.18
2022-11-24T08:59:04.448Z,6.40
2022-11-24T09:03:51.680Z,5.45
2022-11-24T09:08:40.229Z,4.68
2022-11-24T09:13:25.599Z,6.13
2022-11-24T09:18:10.785Z,4.60
2022-11-24T09:22:56.318Z,5.03
2022-11-24T09:27:43.962Z,3.63
2022-11-24T09:32:29.384Z,4.20
2022-11-24T09:37:14.443Z,4.50
2022-11-24T09:42:15.555Z,4.47
2022-11-24T09:47:12.920Z,4.63
2022-11-24T09:52:00.123Z,5.45
2022-11-24T09:56:46.816Z,5.55
2022-11-24T10:01:33.804Z,8.00
2022-11-24T10:06:32.320Z,8.98
2022-11-24T10:11:23.847Z,9.38
2022-11-24T10:16:17.943Z,10.17
2022-11-24T10:21:13.123Z,8.60
2022-11-24T10:26:02.257Z,8.20
2022-11-24T10:30:47.634Z,9.50
2022-11-24T10:35:40.703Z,11.05
2022-11-24T10:45:44.793Z,13.10
2022-11-24T10:50:34.189Z,10.60
2022-11-24T10:55:21.734Z,13.40
2022-11-24T11:00:30.602Z,8.20
2022-11-24T11:05:42.536Z,8.10
2022-11-24T11:10:28.092Z,31.70
2022-11-24T11:15:29.338Z,12.68
2022-11-24T11:20:22.235Z,8.43
2022-11-24T11:25:23.302Z,8.88
2022-11-24T11:35:36.692Z,9.40
2022-11-24T11:40:28.005Z,19.33
2022-11-24T11:45:17.819Z,17.05
2022-11-24T11:50:03.132Z,18.40
2022-11-24T11:55:12.932Z,19.08
2022-11-24T12:00:13.975Z,20.40
2022-11-24T12:05:03.187Z,17.25
2022-11-24T12:10:01.765Z,10.48
2022-11-24T12:15:00.047Z,14.77
2022-11-24T12:20:00.944Z,8.40
2022-11-24T12:24:57.121Z,7.95
2022-11-24T12:30:04.303Z,8.80
2022-11-24T12:34:58.831Z,8.10
2022-11-24T12:39:53.414Z,8.63
2022-11-24T12:45:07.471Z,9.02
2022-11-24T12:50:05.775Z,10.07
2022-11-24T12:54:50.959Z,12.63
2022-11-24T12:59:44.009Z,9.95
2022-11-24T13:04:38.461Z,8.45
2022-11-24T13:09:26.679Z,6.13
2022-11-24T13:14:19.364Z,11.77
2022-11-24T13:19:10.192Z,7.18
2022-11-24T13:23:59.716Z,6.67
2022-11-24T13:29:18.225Z,6.57
2022-11-24T13:34:39.693Z,5.70
2022-11-24T13:39:50.202Z,5.53
2022-11-24T13:44:52.831Z,6.10
2022-11-24T13:54:28.511Z,6.38
2022-11-24T13:59:20.433Z,5.63
2022-11-24T14:04:36.036Z,9.93
2022-11-24T14:09:31.327Z,6.43
2022-11-24T14:14:22.039Z,6.20
2022-11-24T14:19:13.560Z,5.95
2022-11-24T14:24:01.579Z,9.70
2022-11-24T14:28:48.353Z,11.02
2022-11-24T14:33:33.460Z,5.55
2022-11-24T14:38:21.409Z,6.10
2022-11-24T14:43:06.894Z,6.80
2022-11-24T14:47:52.652Z,6.30
2022-11-24T14:52:38.255Z,6.15
2022-11-24T14:57:28.688Z,6.53
2022-11-24T15:02:43.478Z,6.32
2022-11-24T15:07:30.785Z,6.55
2022-11-24T15:12:34.990Z,7.20
2022-11-24T15:17:22.579Z,9.23
2022-11-24T15:22:37.883Z,9.45
2022-11-24T15:27:23.275Z,9.00
2022-11-24T15:32:16.711Z,9.40
2022-11-24T15:37:02.076Z,8.05
2022-11-24T15:41:47.091Z,10.60
2022-11-24T15:46:38.335Z,8.57
2022-11-24T15:51:28.478Z,8.73
2022-11-24T15:56:18.811Z,9.35
2022-11-24T16:01:03.904Z,7.72
2022-11-24T16:05:52.264Z,7.80
2022-11-24T16:10:39.989Z,12.20
2022-11-24T16:15:25.468Z,8.63
2022-11-24T16:20:12.015Z,9.57
2022-11-24T16:24:57.142Z,10.57
2022-11-24T16:29:45.131Z,11.57
2022-11-24T16:34:30.255Z,17.45
2022-11-24T16:39:15.619Z,14.07
2022-11-24T16:44:00.765Z,10.15
2022-11-24T16:48:50.022Z,9.98
2022-11-24T16:53:35.500Z,6.75
2022-11-24T16:58:20.916Z,9.73
2022-11-24T17:03:06.391Z,14.65
2022-11-24T17:07:54.453Z,17.85
2022-11-24T17:12:40.994Z,20.45
2022-11-24T17:17:26.363Z,26.60
2022-11-24T17:22:11.831Z,28.38
2022-11-24T17:26:59.543Z,11.65
2022-11-24T17:31:45.266Z,17.80
2022-11-24T17:36:31.259Z,17.88
2022-11-24T17:41:16.934Z,18.30
2022-11-24T17:46:06.276Z,16.02
2022-11-24T17:50:51.990Z,15.07
2022-11-24T17:55:37.629Z,27.65
2022-11-24T18:00:23.679Z,22.35
2022-11-24T18:05:12.255Z,25.50
2022-11-24T18:09:57.723Z,22.98
2022-11-24T18:14:42.796Z,20.02
2022-11-24T18:19:28.292Z,14.60
2022-11-24T18:24:21.099Z,17.58
2022-11-24T18:29:09.403Z,18.00
2022-11-24T18:33:54.403Z,18.17
2022-11-24T18:38:40.112Z,18.30
2022-11-24T18:43:29.415Z,20.13
2022-11-24T18:48:14.500Z,19.30
2022-11-24T18:52:59.863Z,21.15
2022-11-24T18:57:45.130Z,26.50
2022-11-24T19:02:33.131Z,25.90
2022-11-24T19:07:18.239Z,28.80
2022-11-24T19:12:04.221Z,18.98
2022-11-24T19:16:50.482Z,16.95
2022-11-24T19:21:40.429Z,14.18
2022-11-24T19:26:26.146Z,18.10
2022-11-24T19:31:14.517Z,15.38
2022-11-24T19:36:03.791Z,13.60
2022-11-24T19:40:51.827Z,14.15
2022-11-24T19:45:36.950Z,14.75
2022-11-24T19:50:22.624Z,12.95
2022-11-24T19:55:08.564Z,12.82
2022-11-24T19:59:56.763Z,17.67
2022-11-24T20:04:43.110Z,17.45
2022-11-24T20:09:28.665Z,12.48
2022-11-24T20:14:15.834Z,13.07
2022-11-24T20:19:06.289Z,15.25
2022-11-24T20:23:56.106Z,16.58
2022-11-24T20:28:41.772Z,15.55
2022-11-24T20:33:27.577Z,12.23
2022-11-24T20:38:15.691Z,12.18
2022-11-24T20:43:00.766Z,11.88
2022-11-24T20:47:46.503Z,10.68
2022-11-24T20:52:31.619Z,10.15
2022-11-24T20:57:19.596Z,10.02
2022-11-24T21:02:04.669Z,10.13
2022-11-24T21:06:50.296Z,9.45
2022-11-24T21:11:36.842Z,10.40
2022-11-24T21:16:25.972Z,12.10
2022-11-24T21:21:13.264Z,10.60
2022-11-24T21:26:05.336Z,11.23
2022-11-24T21:30:51.056Z,10.82
2022-11-24T21:35:40.315Z,10.35
2022-11-24T21:40:25.670Z,9.25
2022-11-24T21:45:12.359Z,9.10
2022-11-24T21:49:57.764Z,8.63
2022-11-24T21:54:45.447Z,11.75
2022-11-24T21:59:30.861Z,11.85
2022-11-24T22:04:15.954Z,8.60
2022-11-24T22:09:01.428Z,9.70
2022-11-24T22:13:49.961Z,9.80
2022-11-24T22:18:36.803Z,12.13
2022-11-24T22:23:22.169Z,10.32
2022-11-24T22:28:07.601Z,14.23
2022-11-24T22:32:56.551Z,10.55
2022-11-24T22:37:42.034Z,14.65
2022-11-24T22:42:27.260Z,10.82
2022-11-24T22:47:12.647Z,9.95
2022-11-24T22:52:00.267Z,15.35
2022-11-24T22:56:45.988Z,12.32
2022-11-24T23:01:33.713Z,11.98
2022-11-24T23:06:22.515Z,8.93
2022-11-24T23:11:12.103Z,9.45
2022-11-24T23:16:03.252Z,9.32
2022-11-24T23:20:48.409Z,10.88
2022-11-24T23:25:36.550Z,9.18
2022-11-24T23:30:28.082Z,9.07
2022-11-24T23:35:14.130Z,7.73
2022-11-24T23:39:59.671Z,7.85
2022-11-24T23:44:44.932Z,7.22
2022-11-24T23:49:32.891Z,8.30
2022-11-24T23:54:17.932Z,9.95
2022-11-24T23:59:04.681Z,12.57
